sensor_id;sensor_type;location;lat;lon;timestamp;P1;durP1;ratioP1;P2;durP2;ratioP2
75810;SDS011;64449;50.016;19.954;2023-05-10T00:01:39;14.70;;;7.80;;
75810;SDS011;64449;50.016;19.954;2023-05-10T00:04:05;14.00;;;7.60;;
75810;SDS011;64449;50.016;19.954;2023-05-10T00:06:31;10.50;;;6.50;;
75810;SDS011;64449;50.016;19.954;2023-05-10T00:08:57;13.10;;;7.70;;
75810;SDS011;64449;50.016;19.954;2023-05-10T00:11:22;12.70;;;7.10;;
75810;SDS011;64449;50.016;19.954;2023-05-10T00:13:48;10.50;;;6.60;;
75810;SDS011;64449;50.016;19.954;2023-05-10T00:16:13;12.70;;;6.80;;
75810;SDS011;64449;50.016;19.954;2023-05-10T00:18:39;10.50;;;7.20;;
75810;SDS011;64449;50.016;19.954;2023-05-10T00:21:05;11.10;;;7.10;;
75810;SDS011;64449;50.016;19.954;2023-05-10T00:23:31;10.40;;;6.20;;
75810;SDS011;64449;50.016;19.954;2023-05-10T00:25:56;10.30;;;7.30;;
75810;SDS011;64449;50.016;19.954;2023-05-10T00:28:22;12.90;;;7.00;;
75810;SDS011;64449;50.016;19.954;2023-05-10T00:30:48;11.90;;;7.10;;
75810;SDS011;64449;50.016;19.954;2023-05-10T00:33:13;14.80;;;8.60;;
75810;SDS011;64449;50.016;19.954;2023-05-10T00:35:39;17.30;;;8.20;;
75810;SDS011;64449;50.016;19.954;2023-05-10T00:38:04;14.50;;;8.80;;
75810;SDS011;64449;50.016;19.954;2023-05-10T00:40:30;15.50;;;9.10;;
75810;SDS011;64449;50.016;19.954;2023-05-10T00:42:56;16.40;;;9.00;;
75810;SDS011;64449;50.016;19.954;2023-05-10T00:45:23;17.40;;;8.90;;
75810;SDS011;64449;50.016;19.954;2023-05-10T00:47:49;13.30;;;8.60;;
75810;SDS011;64449;50.016;19.954;2023-05-10T00:50:14;16.80;;;9.60;;
75810;SDS011;64449;50.016;19.954;2023-05-10T00:52:40;18.30;;;9.70;;
75810;SDS011;64449;50.016;19.954;2023-05-10T00:55:07;18.70;;;8.30;;
75810;SDS011;64449;50.016;19.954;2023-05-10T00:57:35;15.60;;;8.80;;
75810;SDS011;64449;50.016;19.954;2023-05-10T01:00:01;12.80;;;8.40;;
75810;SDS011;64449;50.016;19.954;2023-05-10T01:02:28;16.60;;;9.00;;
75810;SDS011;64449;50.016;19.954;2023-05-10T01:04:53;13.80;;;7.60;;
75810;SDS011;64449;50.016;19.954;2023-05-10T01:07:19;12.70;;;8.50;;
75810;SDS011;64449;50.016;19.954;2023-05-10T01:09:44;15.10;;;7.70;;
75810;SDS011;64449;50.016;19.954;2023-05-10T01:12:10;11.50;;;7.50;;
75810;SDS011;64449;50.016;19.954;2023-05-10T01:14:36;11.20;;;6.90;;
75810;SDS011;64449;50.016;19.954;2023-05-10T01:17:02;14.60;;;6.10;;
75810;SDS011;64449;50.016;19.954;2023-05-10T01:19:30;11.20;;;7.10;;
75810;SDS011;64449;50.016;19.954;2023-05-10T01:22:09;11.90;;;6.60;;
75810;SDS011;64449;50.016;19.954;2023-05-10T01:30:42;12.40;;;7.20;;
75810;SDS011;64449;50.016;19.954;2023-05-10T01:36:30;13.80;;;7.80;;
75810;SDS011;64449;50.016;19.954;2023-05-10T01:44:58;12.70;;;7.90;;
75810;SDS011;64449;50.016;19.954;2023-05-10T01:50:06;15.00;;;8.50;;
75810;SDS011;64449;50.016;19.954;2023-05-10T01:52:44;14.30;;;8.20;;
75810;SDS011;64449;50.016;19.954;2023-05-10T01:55:15;16.90;;;8.00;;
75810;SDS011;64449;50.016;19.954;2023-05-10T01:57:43;12.00;;;8.40;;
75810;SDS011;64449;50.016;19.954;2023-05-10T02:00:11;11.80;;;7.10;;
75810;SDS011;64449;50.016;19.954;2023-05-10T02:02:40;11.80;;;7.50;;
75810;SDS011;64449;50.016;19.954;2023-05-10T02:05:07;10.80;;;7.20;;
75810;SDS011;64449;50.016;19.954;2023-05-10T02:07:35;14.10;;;7.20;;
75810;SDS011;64449;50.016;19.954;2023-05-10T02:10:02;10.60;;;6.70;;
75810;SDS011;64449;50.016;19.954;2023-05-10T02:12:29;9.30;;;6.50;;
75810;SDS011;64449;50.016;19.954;2023-05-10T02:14:59;12.10;;;6.90;;
75810;SDS011;64449;50.016;19.954;2023-05-10T02:17:30;9.70;;;6.00;;
75810;SDS011;64449;50.016;19.954;2023-05-10T02:19:58;14.40;;;6.80;;
75810;SDS011;64449;50.016;19.954;2023-05-10T02:22:26;9.90;;;5.90;;
75810;SDS011;64449;50.016;19.954;2023-05-10T02:24:56;10.20;;;6.70;;
75810;SDS011;64449;50.016;19.954;2023-05-10T02:27:24;9.70;;;5.90;;
75810;SDS011;64449;50.016;19.954;2023-05-10T02:29:52;9.80;;;6.40;;
75810;SDS011;64449;50.016;19.954;2023-05-10T02:32:19;12.80;;;6.60;;
75810;SDS011;64449;50.016;19.954;2023-05-10T02:34:47;9.80;;;6.40;;
75810;SDS011;64449;50.016;19.954;2023-05-10T02:37:17;10.70;;;7.90;;
75810;SDS011;64449;50.016;19.954;2023-05-10T02:39:46;12.00;;;7.10;;
75810;SDS011;64449;50.016;19.954;2023-05-10T02:42:13;12.90;;;7.70;;
75810;SDS011;64449;50.016;19.954;2023-05-10T02:44:41;10.60;;;6.70;;
75810;SDS011;64449;50.016;19.954;2023-05-10T02:47:08;11.20;;;7.70;;
75810;SDS011;64449;50.016;19.954;2023-05-10T02:49:33;13.00;;;7.80;;
75810;SDS011;64449;50.016;19.954;2023-05-10T02:52:00;10.70;;;7.20;;
75810;SDS011;64449;50.016;19.954;2023-05-10T02:54:30;13.30;;;7.40;;
75810;SDS011;64449;50.016;19.954;2023-05-10T02:57:00;13.50;;;7.70;;
75810;SDS011;64449;50.016;19.954;2023-05-10T02:59:29;12.70;;;7.50;;
75810;SDS011;64449;50.016;19.954;2023-05-10T03:01:54;14.80;;;8.70;;
75810;SDS011;64449;50.016;19.954;2023-05-10T03:04:19;14.70;;;9.40;;
75810;SDS011;64449;50.016;19.954;2023-05-10T03:06:45;17.50;;;11.20;;
75810;SDS011;64449;50.016;19.954;2023-05-10T03:09:11;18.80;;;11.70;;
75810;SDS011;64449;50.016;19.954;2023-05-10T03:11:47;19.40;;;11.30;;
75810;SDS011;64449;50.016;19.954;2023-05-10T03:20:31;16.00;;;10.30;;
75810;SDS011;64449;50.016;19.954;2023-05-10T03:25:43;13.40;;;8.00;;
75810;SDS011;64449;50.016;19.954;2023-05-10T03:28:11;9.60;;;6.40;;
75810;SDS011;64449;50.016;19.954;2023-05-10T03:30:38;11.20;;;6.70;;
75810;SDS011;64449;50.016;19.954;2023-05-10T03:33:05;9.40;;;6.90;;
75810;SDS011;64449;50.016;19.954;2023-05-10T03:35:31;10.40;;;6.80;;
75810;SDS011;64449;50.016;19.954;2023-05-10T03:37:57;12.40;;;7.00;;
75810;SDS011;64449;50.016;19.954;2023-05-10T03:40:22;11.60;;;7.00;;
75810;SDS011;64449;50.016;19.954;2023-05-10T03:42:49;11.30;;;6.70;;
75810;SDS011;64449;50.016;19.954;2023-05-10T03:45:14;12.30;;;6.70;;
75810;SDS011;64449;50.016;19.954;2023-05-10T03:47:40;13.20;;;7.30;;
75810;SDS011;64449;50.016;19.954;2023-05-10T03:50:06;11.00;;;6.30;;
75810;SDS011;64449;50.016;19.954;2023-05-10T03:52:32;13.30;;;7.10;;
75810;SDS011;64449;50.016;19.954;2023-05-10T03:54:57;12.50;;;6.70;;
75810;SDS011;64449;50.016;19.954;2023-05-10T03:57:22;12.70;;;6.70;;
75810;SDS011;64449;50.016;19.954;2023-05-10T03:59:48;12.00;;;6.10;;
75810;SDS011;64449;50.016;19.954;2023-05-10T04:02:13;9.40;;;5.50;;
75810;SDS011;64449;50.016;19.954;2023-05-10T04:04:39;13.40;;;6.80;;
75810;SDS011;64449;50.016;19.954;2023-05-10T04:07:05;12.10;;;6.60;;
75810;SDS011;64449;50.016;19.954;2023-05-10T04:09:30;13.90;;;6.50;;
75810;SDS011;64449;50.016;19.954;2023-05-10T04:11:56;11.90;;;6.50;;
75810;SDS011;64449;50.016;19.954;2023-05-10T04:14:23;9.50;;;5.70;;
75810;SDS011;64449;50.016;19.954;2023-05-10T04:16:48;13.30;;;6.40;;
75810;SDS011;64449;50.016;19.954;2023-05-10T04:19:14;12.70;;;6.60;;
75810;SDS011;64449;50.016;19.954;2023-05-10T04:21:39;10.40;;;6.10;;
75810;SDS011;64449;50.016;19.954;2023-05-10T04:24:04;13.90;;;6.70;;
75810;SDS011;64449;50.016;19.954;2023-05-10T04:26:30;9.20;;;6.00;;
75810;SDS011;64449;50.016;19.954;2023-05-10T04:28:56;13.10;;;6.80;;
75810;SDS011;64449;50.016;19.954;2023-05-10T04:31:21;12.90;;;6.80;;
75810;SDS011;64449;50.016;19.954;2023-05-10T04:33:47;13.40;;;8.30;;
75810;SDS011;64449;50.016;19.954;2023-05-10T04:36:12;13.70;;;6.80;;
75810;SDS011;64449;50.016;19.954;2023-05-10T04:38:37;15.70;;;7.10;;
75810;SDS011;64449;50.016;19.954;2023-05-10T04:41:03;21.50;;;7.40;;
75810;SDS011;64449;50.016;19.954;2023-05-10T04:43:30;18.20;;;9.40;;
75810;SDS011;64449;50.016;19.954;2023-05-10T04:45:58;18.10;;;8.00;;
75810;SDS011;64449;50.016;19.954;2023-05-10T04:48:24;15.40;;;8.30;;
75810;SDS011;64449;50.016;19.954;2023-05-10T04:50:49;15.40;;;8.70;;
75810;SDS011;64449;50.016;19.954;2023-05-10T04:53:15;30.40;;;18.50;;
75810;SDS011;64449;50.016;19.954;2023-05-10T04:55:40;23.30;;;13.50;;
75810;SDS011;64449;50.016;19.954;2023-05-10T04:58:05;31.20;;;18.20;;
75810;SDS011;64449;50.016;19.954;2023-05-10T05:00:31;20.20;;;12.40;;
75810;SDS011;64449;50.016;19.954;2023-05-10T05:02:58;14.40;;;8.70;;
75810;SDS011;64449;50.016;19.954;2023-05-10T05:05:23;14.60;;;7.90;;
75810;SDS011;64449;50.016;19.954;2023-05-10T05:07:48;18.00;;;9.50;;
75810;SDS011;64449;50.016;19.954;2023-05-10T05:10:14;12.90;;;7.50;;
75810;SDS011;64449;50.016;19.954;2023-05-10T05:12:40;9.10;;;5.60;;
75810;SDS011;64449;50.016;19.954;2023-05-10T05:15:05;15.10;;;7.50;;
75810;SDS011;64449;50.016;19.954;2023-05-10T05:17:33;10.50;;;5.30;;
75810;SDS011;64449;50.016;19.954;2023-05-10T05:19:58;14.10;;;7.20;;
75810;SDS011;64449;50.016;19.954;2023-05-10T05:22:24;9.90;;;5.00;;
75810;SDS011;64449;50.016;19.954;2023-05-10T05:24:52;11.80;;;6.00;;
75810;SDS011;64449;50.016;19.954;2023-05-10T05:27:22;8.00;;;5.10;;
75810;SDS011;64449;50.016;19.954;2023-05-10T05:29:52;10.10;;;4.80;;
75810;SDS011;64449;50.016;19.954;2023-05-10T05:32:21;8.90;;;5.30;;
75810;SDS011;64449;50.016;19.954;2023-05-10T05:34:47;9.80;;;5.20;;
75810;SDS011;64449;50.016;19.954;2023-05-10T05:37:13;15.70;;;6.70;;
75810;SDS011;64449;50.016;19.954;2023-05-10T05:39:43;11.60;;;4.70;;
75810;SDS011;64449;50.016;19.954;2023-05-10T05:42:09;15.60;;;6.80;;
75810;SDS011;64449;50.016;19.954;2023-05-10T05:44:35;8.80;;;5.40;;
75810;SDS011;64449;50.016;19.954;2023-05-10T05:47:01;10.00;;;5.10;;
75810;SDS011;64449;50.016;19.954;2023-05-10T05:49:27;10.50;;;5.30;;
75810;SDS011;64449;50.016;19.954;2023-05-10T05:51:53;11.50;;;5.60;;
75810;SDS011;64449;50.016;19.954;2023-05-10T05:54:18;10.30;;;5.70;;
75810;SDS011;64449;50.016;19.954;2023-05-10T05:56:43;13.90;;;6.70;;
75810;SDS011;64449;50.016;19.954;2023-05-10T05:59:09;11.70;;;5.80;;
75810;SDS011;64449;50.016;19.954;2023-05-10T06:01:36;11.80;;;6.20;;
75810;SDS011;64449;50.016;19.954;2023-05-10T06:04:01;13.90;;;6.00;;
75810;SDS011;64449;50.016;19.954;2023-05-10T06:06:27;12.20;;;5.00;;
75810;SDS011;64449;50.016;19.954;2023-05-10T06:08:52;7.80;;;4.40;;
75810;SDS011;64449;50.016;19.954;2023-05-10T06:11:18;9.30;;;5.60;;
75810;SDS011;64449;50.016;19.954;2023-05-10T06:13:43;14.40;;;7.50;;
75810;SDS011;64449;50.016;19.954;2023-05-10T06:16:09;7.10;;;4.20;;
75810;SDS011;64449;50.016;19.954;2023-05-10T06:18:35;7.70;;;4.50;;
75810;SDS011;64449;50.016;19.954;2023-05-10T06:21:00;14.10;;;7.20;;
75810;SDS011;64449;50.016;19.954;2023-05-10T06:23:25;15.90;;;7.90;;
75810;SDS011;64449;50.016;19.954;2023-05-10T06:25:51;19.10;;;6.80;;
75810;SDS011;64449;50.016;19.954;2023-05-10T06:28:17;14.40;;;6.30;;
75810;SDS011;64449;50.016;19.954;2023-05-10T06:30:42;12.20;;;6.80;;
75810;SDS011;64449;50.016;19.954;2023-05-10T06:33:08;16.70;;;7.50;;
75810;SDS011;64449;50.016;19.954;2023-05-10T06:35:33;11.20;;;5.80;;
75810;SDS011;64449;50.016;19.954;2023-05-10T06:37:59;9.60;;;5.00;;
75810;SDS011;64449;50.016;19.954;2023-05-10T06:40:24;10.00;;;5.00;;
75810;SDS011;64449;50.016;19.954;2023-05-10T06:42:50;8.20;;;5.00;;
75810;SDS011;64449;50.016;19.954;2023-05-10T06:45:15;14.00;;;4.60;;
75810;SDS011;64449;50.016;19.954;2023-05-10T06:47:41;7.30;;;3.90;;
75810;SDS011;64449;50.016;19.954;2023-05-10T06:50:10;8.50;;;4.80;;
75810;SDS011;64449;50.016;19.954;2023-05-10T06:52:39;8.90;;;4.70;;
75810;SDS011;64449;50.016;19.954;2023-05-10T06:55:05;10.80;;;4.90;;
75810;SDS011;64449;50.016;19.954;2023-05-10T06:57:31;9.00;;;5.10;;
75810;SDS011;64449;50.016;19.954;2023-05-10T06:59:57;8.80;;;5.00;;
75810;SDS011;64449;50.016;19.954;2023-05-10T07:02:23;8.80;;;4.10;;
75810;SDS011;64449;50.016;19.954;2023-05-10T07:04:48;12.20;;;5.70;;
75810;SDS011;64449;50.016;19.954;2023-05-10T07:07:15;6.10;;;3.50;;
75810;SDS011;64449;50.016;19.954;2023-05-10T07:09:40;8.40;;;4.80;;
75810;SDS011;64449;50.016;19.954;2023-05-10T07:12:06;10.00;;;4.40;;
75810;SDS011;64449;50.016;19.954;2023-05-10T07:14:31;8.70;;;4.30;;
75810;SDS011;64449;50.016;19.954;2023-05-10T07:16:57;6.70;;;3.90;;
75810;SDS011;64449;50.016;19.954;2023-05-10T07:19:22;11.20;;;5.10;;
75810;SDS011;64449;50.016;19.954;2023-05-10T07:21:48;13.10;;;3.60;;
75810;SDS011;64449;50.016;19.954;2023-05-10T07:24:13;7.90;;;4.90;;
75810;SDS011;64449;50.016;19.954;2023-05-10T07:26:38;6.80;;;4.10;;
75810;SDS011;64449;50.016;19.954;2023-05-10T07:29:04;6.00;;;3.80;;
75810;SDS011;64449;50.016;19.954;2023-05-10T07:31:30;6.80;;;3.90;;
75810;SDS011;64449;50.016;19.954;2023-05-10T07:33:55;9.40;;;4.00;;
75810;SDS011;64449;50.016;19.954;2023-05-10T07:36:21;8.70;;;4.20;;
75810;SDS011;64449;50.016;19.954;2023-05-10T07:38:46;7.60;;;3.50;;
75810;SDS011;64449;50.016;19.954;2023-05-10T07:41:12;6.80;;;4.10;;
75810;SDS011;64449;50.016;19.954;2023-05-10T07:43:37;10.00;;;5.20;;
75810;SDS011;64449;50.016;19.954;2023-05-10T07:46:03;10.70;;;3.80;;
75810;SDS011;64449;50.016;19.954;2023-05-10T07:48:28;6.30;;;3.60;;
75810;SDS011;64449;50.016;19.954;2023-05-10T07:50:54;8.90;;;3.80;;
75810;SDS011;64449;50.016;19.954;2023-05-10T07:53:19;5.50;;;3.00;;
75810;SDS011;64449;50.016;19.954;2023-05-10T07:55:49;6.20;;;3.40;;
75810;SDS011;64449;50.016;19.954;2023-05-10T07:58:15;6.80;;;4.00;;
75810;SDS011;64449;50.016;19.954;2023-05-10T08:00:40;5.90;;;2.80;;
75810;SDS011;64449;50.016;19.954;2023-05-10T08:03:06;5.90;;;3.50;;
75810;SDS011;64449;50.016;19.954;2023-05-10T08:05:31;5.10;;;3.10;;
75810;SDS011;64449;50.016;19.954;2023-05-10T08:07:57;6.00;;;3.00;;
75810;SDS011;64449;50.016;19.954;2023-05-10T08:10:22;5.90;;;3.30;;
75810;SDS011;64449;50.016;19.954;2023-05-10T08:12:49;6.80;;;3.80;;
75810;SDS011;64449;50.016;19.954;2023-05-10T08:15:14;5.50;;;3.00;;
75810;SDS011;64449;50.016;19.954;2023-05-10T08:17:40;5.60;;;3.20;;
75810;SDS011;64449;50.016;19.954;2023-05-10T08:20:06;5.80;;;3.50;;
75810;SDS011;64449;50.016;19.954;2023-05-10T08:22:32;4.40;;;2.60;;
75810;SDS011;64449;50.016;19.954;2023-05-10T08:24:58;7.40;;;2.50;;
75810;SDS011;64449;50.016;19.954;2023-05-10T08:27:23;4.60;;;2.70;;
75810;SDS011;64449;50.016;19.954;2023-05-10T08:29:49;4.10;;;2.30;;
75810;SDS011;64449;50.016;19.954;2023-05-10T08:32:14;6.70;;;3.10;;
75810;SDS011;64449;50.016;19.954;2023-05-10T08:34:40;3.60;;;2.30;;
75810;SDS011;64449;50.016;19.954;2023-05-10T08:37:05;3.50;;;2.20;;
75810;SDS011;64449;50.016;19.954;2023-05-10T08:39:33;4.10;;;2.20;;
75810;SDS011;64449;50.016;19.954;2023-05-10T08:42:01;3.90;;;1.90;;
75810;SDS011;64449;50.016;19.954;2023-05-10T08:44:29;5.40;;;1.70;;
75810;SDS011;64449;50.016;19.954;2023-05-10T08:46:56;3.80;;;2.30;;
75810;SDS011;64449;50.016;19.954;2023-05-10T08:49:24;8.30;;;2.50;;
75810;SDS011;64449;50.016;19.954;2023-05-10T08:51:55;4.00;;;2.20;;
75810;SDS011;64449;50.016;19.954;2023-05-10T08:54:22;3.10;;;2.00;;
75810;SDS011;64449;50.016;19.954;2023-05-10T08:56:49;3.90;;;2.00;;
75810;SDS011;64449;50.016;19.954;2023-05-10T08:59:14;3.40;;;1.80;;
75810;SDS011;64449;50.016;19.954;2023-05-10T09:01:41;3.70;;;2.00;;
75810;SDS011;64449;50.016;19.954;2023-05-10T09:04:09;3.50;;;1.80;;
75810;SDS011;64449;50.016;19.954;2023-05-10T09:06:34;3.90;;;1.90;;
75810;SDS011;64449;50.016;19.954;2023-05-10T09:09:00;4.40;;;1.90;;
75810;SDS011;64449;50.016;19.954;2023-05-10T09:11:26;3.90;;;1.80;;
75810;SDS011;64449;50.016;19.954;2023-05-10T09:13:54;3.00;;;1.40;;
75810;SDS011;64449;50.016;19.954;2023-05-10T09:16:20;3.90;;;1.60;;
75810;SDS011;64449;50.016;19.954;2023-05-10T09:18:46;2.90;;;1.60;;
75810;SDS011;64449;50.016;19.954;2023-05-10T09:21:11;2.90;;;1.60;;
75810;SDS011;64449;50.016;19.954;2023-05-10T09:23:37;3.20;;;1.50;;
75810;SDS011;64449;50.016;19.954;2023-05-10T09:26:05;2.90;;;1.30;;
75810;SDS011;64449;50.016;19.954;2023-05-10T09:28:32;2.40;;;1.20;;
75810;SDS011;64449;50.016;19.954;2023-05-10T09:30:58;2.80;;;1.60;;
75810;SDS011;64449;50.016;19.954;2023-05-10T09:33:24;1.70;;;1.00;;
75810;SDS011;64449;50.016;19.954;2023-05-10T09:35:51;2.70;;;1.70;;
75810;SDS011;64449;50.016;19.954;2023-05-10T09:38:17;2.10;;;1.10;;
75810;SDS011;64449;50.016;19.954;2023-05-10T09:40:42;3.20;;;1.70;;
75810;SDS011;64449;50.016;19.954;2023-05-10T09:43:19;2.80;;;1.60;;
75810;SDS011;64449;50.016;19.954;2023-05-10T09:45:45;5.30;;;1.50;;
75810;SDS011;64449;50.016;19.954;2023-05-10T09:48:14;3.60;;;1.70;;
75810;SDS011;64449;50.016;19.954;2023-05-10T09:50:40;2.60;;;1.40;;
75810;SDS011;64449;50.016;19.954;2023-05-10T09:53:06;4.50;;;1.90;;
75810;SDS011;64449;50.016;19.954;2023-05-10T09:58:05;2.80;;;1.20;;
75810;SDS011;64449;50.016;19.954;2023-05-10T10:00:42;2.80;;;1.40;;
75810;SDS011;64449;50.016;19.954;2023-05-10T10:03:16;2.90;;;1.60;;
75810;SDS011;64449;50.016;19.954;2023-05-10T10:05:42;2.80;;;1.50;;
75810;SDS011;64449;50.016;19.954;2023-05-10T10:08:08;3.10;;;1.50;;
75810;SDS011;64449;50.016;19.954;2023-05-10T10:10:36;2.90;;;1.40;;
75810;SDS011;64449;50.016;19.954;2023-05-10T10:13:01;7.80;;;4.20;;
75810;SDS011;64449;50.016;19.954;2023-05-10T10:15:27;3.30;;;1.40;;
75810;SDS011;64449;50.016;19.954;2023-05-10T10:17:53;2.30;;;1.20;;
75810;SDS011;64449;50.016;19.954;2023-05-10T10:20:19;4.20;;;1.60;;
75810;SDS011;64449;50.016;19.954;2023-05-10T10:22:46;3.30;;;1.30;;
75810;SDS011;64449;50.016;19.954;2023-05-10T10:25:13;3.90;;;1.50;;
75810;SDS011;64449;50.016;19.954;2023-05-10T10:27:45;4.70;;;1.70;;
75810;SDS011;64449;50.016;19.954;2023-05-10T10:35:48;5.50;;;2.10;;
75810;SDS011;64449;50.016;19.954;2023-05-10T10:38:15;3.40;;;1.50;;
75810;SDS011;64449;50.016;19.954;2023-05-10T10:40:42;7.30;;;1.50;;
75810;SDS011;64449;50.016;19.954;2023-05-10T10:48:38;3.60;;;1.70;;
75810;SDS011;64449;50.016;19.954;2023-05-10T10:51:04;3.70;;;1.60;;
75810;SDS011;64449;50.016;19.954;2023-05-10T10:53:30;3.10;;;1.50;;
75810;SDS011;64449;50.016;19.954;2023-05-10T10:56:05;2.40;;;1.10;;
75810;SDS011;64449;50.016;19.954;2023-05-10T10:58:35;2.90;;;1.60;;
75810;SDS011;64449;50.016;19.954;2023-05-10T11:01:12;2.60;;;1.30;;
75810;SDS011;64449;50.016;19.954;2023-05-10T11:03:40;2.20;;;1.10;;
75810;SDS011;64449;50.016;19.954;2023-05-10T11:06:06;2.40;;;1.30;;
75810;SDS011;64449;50.016;19.954;2023-05-10T11:08:34;2.40;;;1.30;;
75810;SDS011;64449;50.016;19.954;2023-05-10T11:11:08;2.90;;;1.30;;
75810;SDS011;64449;50.016;19.954;2023-05-10T11:19:02;2.30;;;1.30;;
75810;SDS011;64449;50.016;19.954;2023-05-10T11:21:30;3.30;;;1.40;;
75810;SDS011;64449;50.016;19.954;2023-05-10T11:23:56;2.50;;;1.30;;
75810;SDS011;64449;50.016;19.954;2023-05-10T11:26:24;3.30;;;1.50;;
75810;SDS011;64449;50.016;19.954;2023-05-10T11:28:59;2.30;;;1.20;;
75810;SDS011;64449;50.016;19.954;2023-05-10T11:31:26;2.50;;;1.50;;
75810;SDS011;64449;50.016;19.954;2023-05-10T11:33:53;2.50;;;1.30;;
75810;SDS011;64449;50.016;19.954;2023-05-10T11:36:24;4.50;;;1.90;;
75810;SDS011;64449;50.016;19.954;2023-05-10T11:38:53;2.60;;;1.50;;
75810;SDS011;64449;50.016;19.954;2023-05-10T11:41:19;2.60;;;1.30;;
75810;SDS011;64449;50.016;19.954;2023-05-10T11:43:51;3.10;;;1.70;;
75810;SDS011;64449;50.016;19.954;2023-05-10T11:46:18;3.80;;;1.60;;
75810;SDS011;64449;50.016;19.954;2023-05-10T11:48:52;3.80;;;1.80;;
75810;SDS011;64449;50.016;19.954;2023-05-10T11:51:20;3.80;;;1.60;;
75810;SDS011;64449;50.016;19.954;2023-05-10T11:53:47;3.10;;;1.60;;
75810;SDS011;64449;50.016;19.954;2023-05-10T11:56:12;4.30;;;2.50;;
75810;SDS011;64449;50.016;19.954;2023-05-10T11:58:38;3.70;;;2.10;;
75810;SDS011;64449;50.016;19.954;2023-05-10T12:01:05;4.00;;;1.80;;
75810;SDS011;64449;50.016;19.954;2023-05-10T12:03:32;2.60;;;1.50;;
75810;SDS011;64449;50.016;19.954;2023-05-10T12:05:58;4.20;;;1.80;;
75810;SDS011;64449;50.016;19.954;2023-05-10T12:08:26;2.30;;;1.40;;
75810;SDS011;64449;50.016;19.954;2023-05-10T12:10:53;2.60;;;1.50;;
75810;SDS011;64449;50.016;19.954;2023-05-10T12:13:29;3.50;;;2.00;;
75810;SDS011;64449;50.016;19.954;2023-05-10T12:15:57;3.40;;;1.60;;
75810;SDS011;64449;50.016;19.954;2023-05-10T12:18:23;5.30;;;2.60;;
75810;SDS011;64449;50.016;19.954;2023-05-10T12:20:52;3.10;;;2.00;;
75810;SDS011;64449;50.016;19.954;2023-05-10T12:23:21;3.50;;;1.70;;
75810;SDS011;64449;50.016;19.954;2023-05-10T12:25:47;3.50;;;1.90;;
75810;SDS011;64449;50.016;19.954;2023-05-10T12:28:12;2.80;;;1.50;;
75810;SDS011;64449;50.016;19.954;2023-05-10T12:30:38;3.70;;;1.80;;
75810;SDS011;64449;50.016;19.954;2023-05-10T12:33:07;2.60;;;1.30;;
75810;SDS011;64449;50.016;19.954;2023-05-10T12:35:43;3.30;;;1.70;;
75810;SDS011;64449;50.016;19.954;2023-05-10T12:38:26;2.70;;;1.60;;
75810;SDS011;64449;50.016;19.954;2023-05-10T12:40:58;3.30;;;1.50;;
75810;SDS011;64449;50.016;19.954;2023-05-10T12:43:25;3.40;;;1.80;;
75810;SDS011;64449;50.016;19.954;2023-05-10T12:45:50;3.40;;;1.60;;
75810;SDS011;64449;50.016;19.954;2023-05-10T12:48:16;4.00;;;1.70;;
75810;SDS011;64449;50.016;19.954;2023-05-10T12:50:41;3.70;;;1.30;;
75810;SDS011;64449;50.016;19.954;2023-05-10T12:53:07;2.90;;;1.40;;
75810;SDS011;64449;50.016;19.954;2023-05-10T12:55:32;6.60;;;2.10;;
75810;SDS011;64449;50.016;19.954;2023-05-10T12:57:57;3.10;;;1.40;;
75810;SDS011;64449;50.016;19.954;2023-05-10T13:00:23;3.90;;;1.40;;
75810;SDS011;64449;50.016;19.954;2023-05-10T13:02:48;4.00;;;1.40;;
75810;SDS011;64449;50.016;19.954;2023-05-10T13:05:14;2.40;;;1.50;;
75810;SDS011;64449;50.016;19.954;2023-05-10T13:07:39;3.40;;;1.50;;
75810;SDS011;64449;50.016;19.954;2023-05-10T13:10:05;3.70;;;1.40;;
75810;SDS011;64449;50.016;19.954;2023-05-10T13:12:31;3.50;;;1.60;;
75810;SDS011;64449;50.016;19.954;2023-05-10T13:14:57;3.80;;;1.60;;
75810;SDS011;64449;50.016;19.954;2023-05-10T13:17:22;2.30;;;1.20;;
75810;SDS011;64449;50.016;19.954;2023-05-10T13:19:48;2.60;;;1.50;;
75810;SDS011;64449;50.016;19.954;2023-05-10T13:22:13;2.20;;;1.40;;
75810;SDS011;64449;50.016;19.954;2023-05-10T13:24:39;2.50;;;1.40;;
75810;SDS011;64449;50.016;19.954;2023-05-10T13:27:04;4.20;;;1.60;;
75810;SDS011;64449;50.016;19.954;2023-05-10T13:29:30;4.70;;;1.90;;
75810;SDS011;64449;50.016;19.954;2023-05-10T13:31:55;3.80;;;1.90;;
75810;SDS011;64449;50.016;19.954;2023-05-10T13:34:21;4.10;;;1.90;;
75810;SDS011;64449;50.016;19.954;2023-05-10T13:36:46;3.90;;;2.20;;
75810;SDS011;64449;50.016;19.954;2023-05-10T13:39:13;5.00;;;3.40;;
75810;SDS011;64449;50.016;19.954;2023-05-10T13:41:39;3.70;;;2.40;;
75810;SDS011;64449;50.016;19.954;2023-05-10T13:44:04;5.20;;;2.90;;
75810;SDS011;64449;50.016;19.954;2023-05-10T13:46:30;3.80;;;2.40;;
75810;SDS011;64449;50.016;19.954;2023-05-10T13:48:56;3.10;;;1.80;;
75810;SDS011;64449;50.016;19.954;2023-05-10T13:51:22;2.70;;;1.60;;
75810;SDS011;64449;50.016;19.954;2023-05-10T13:53:47;2.30;;;1.60;;
75810;SDS011;64449;50.016;19.954;2023-05-10T13:56:13;2.90;;;1.40;;
75810;SDS011;64449;50.016;19.954;2023-05-10T13:58:39;3.80;;;1.80;;
75810;SDS011;64449;50.016;19.954;2023-05-10T14:01:05;3.00;;;1.50;;
75810;SDS011;64449;50.016;19.954;2023-05-10T14:03:30;4.80;;;1.60;;
75810;SDS011;64449;50.016;19.954;2023-05-10T14:05:56;3.00;;;1.60;;
75810;SDS011;64449;50.016;19.954;2023-05-10T14:08:21;2.50;;;1.50;;
75810;SDS011;64449;50.016;19.954;2023-05-10T14:10:47;3.60;;;1.30;;
75810;SDS011;64449;50.016;19.954;2023-05-10T14:13:14;2.40;;;1.50;;
75810;SDS011;64449;50.016;19.954;2023-05-10T14:15:40;2.70;;;1.50;;
75810;SDS011;64449;50.016;19.954;2023-05-10T14:18:06;4.90;;;1.80;;
75810;SDS011;64449;50.016;19.954;2023-05-10T14:20:31;3.50;;;1.40;;
75810;SDS011;64449;50.016;19.954;2023-05-10T14:22:59;3.10;;;1.60;;
75810;SDS011;64449;50.016;19.954;2023-05-10T14:25:25;2.30;;;1.10;;
75810;SDS011;64449;50.016;19.954;2023-05-10T14:27:50;6.30;;;1.90;;
75810;SDS011;64449;50.016;19.954;2023-05-10T14:30:19;3.40;;;1.60;;
75810;SDS011;64449;50.016;19.954;2023-05-10T14:32:44;2.60;;;1.40;;
75810;SDS011;64449;50.016;19.954;2023-05-10T14:35:10;2.30;;;1.40;;
75810;SDS011;64449;50.016;19.954;2023-05-10T14:37:36;3.30;;;1.50;;
75810;SDS011;64449;50.016;19.954;2023-05-10T14:40:01;2.90;;;1.60;;
75810;SDS011;64449;50.016;19.954;2023-05-10T14:42:29;2.40;;;1.30;;
75810;SDS011;64449;50.016;19.954;2023-05-10T14:44:55;2.60;;;1.60;;
75810;SDS011;64449;50.016;19.954;2023-05-10T14:47:21;2.10;;;1.40;;
75810;SDS011;64449;50.016;19.954;2023-05-10T14:49:46;3.10;;;1.50;;
75810;SDS011;64449;50.016;19.954;2023-05-10T14:52:12;3.90;;;1.50;;
75810;SDS011;64449;50.016;19.954;2023-05-10T14:54:39;4.20;;;1.80;;
75810;SDS011;64449;50.016;19.954;2023-05-10T14:57:06;3.00;;;1.40;;
75810;SDS011;64449;50.016;19.954;2023-05-10T14:59:32;4.80;;;1.70;;
75810;SDS011;64449;50.016;19.954;2023-05-10T15:01:57;2.30;;;1.40;;
75810;SDS011;64449;50.016;19.954;2023-05-10T15:04:22;4.30;;;1.50;;
75810;SDS011;64449;50.016;19.954;2023-05-10T15:06:48;3.30;;;1.60;;
75810;SDS011;64449;50.016;19.954;2023-05-10T15:09:13;2.90;;;1.40;;
75810;SDS011;64449;50.016;19.954;2023-05-10T15:11:39;3.30;;;1.70;;